sensor_id;sensor_type;location;lat;lon;timestamp;P1;durP1;ratioP1;P2;durP2;ratioP2
5785;SDS011;2919;48.630;9.000;2022-08-18T00:02:21;6.67;;;3.27;;
5785;SDS011;2919;48.630;9.000;2022-08-18T00:04:49;6.10;;;3.67;;
5785;SDS011;2919;48.630;9.000;2022-08-18T00:07:16;7.73;;;3.40;;
5785;SDS011;2919;48.630;9.000;2022-08-18T00:09:44;7.13;;;3.13;;
5785;SDS011;2919;48.630;9.000;2022-08-18T00:12:13;6.17;;;2.87;;
5785;SDS011;2919;48.630;9.000;2022-08-18T00:14:41;5.33;;;3.00;;
5785;SDS011;2919;48.630;9.000;2022-08-18T00:17:08;5.93;;;3.00;;
5785;SDS011;2919;48.630;9.000;2022-08-18T00:19:34;5.10;;;2.90;;
5785;SDS011;2919;48.630;9.000;2022-08-18T00:21:59;4.00;;;2.70;;
5785;SDS011;2919;48.630;9.000;2022-08-18T00:24:25;5.60;;;3.63;;
5785;SDS011;2919;48.630;9.000;2022-08-18T00:26:50;5.80;;;3.03;;
5785;SDS011;2919;48.630;9.000;2022-08-18T00:29:16;7.17;;;2.90;;
5785;SDS011;2919;48.630;9.000;2022-08-18T00:31:42;5.00;;;3.03;;
5785;SDS011;2919;48.630;9.000;2022-08-18T00:34:08;8.87;;;2.93;;
5785;SDS011;2919;48.630;9.000;2022-08-18T00:36:34;5.00;;;3.07;;
5785;SDS011;2919;48.630;9.000;2022-08-18T00:39:00;4.83;;;2.60;;
5785;SDS011;2919;48.630;9.000;2022-08-18T00:41:27;4.57;;;2.60;;
5785;SDS011;2919;48.630;9.000;2022-08-18T00:43:53;5.80;;;2.90;;
5785;SDS011;2919;48.630;9.000;2022-08-18T00:46:28;6.33;;;3.43;;
5785;SDS011;2919;48.630;9.000;2022-08-18T00:48:57;6.40;;;3.27;;
5785;SDS011;2919;48.630;9.000;2022-08-18T00:56:26;5.43;;;2.97;;
5785;SDS011;2919;48.630;9.000;2022-08-18T01:01:41;4.77;;;2.93;;
5785;SDS011;2919;48.630;9.000;2022-08-18T01:04:10;9.73;;;3.47;;
5785;SDS011;2919;48.630;9.000;2022-08-18T01:06:42;5.70;;;2.60;;
5785;SDS011;2919;48.630;9.000;2022-08-18T01:09:18;13.47;;;3.00;;
5785;SDS011;2919;48.630;9.000;2022-08-18T01:11:44;8.20;;;3.77;;
5785;SDS011;2919;48.630;9.000;2022-08-18T01:14:11;5.80;;;3.10;;
5785;SDS011;2919;48.630;9.000;2022-08-18T01:16:40;8.93;;;3.20;;
5785;SDS011;2919;48.630;9.000;2022-08-18T01:19:26;5.33;;;3.10;;
5785;SDS011;2919;48.630;9.000;2022-08-18T01:22:18;6.30;;;3.40;;
5785;SDS011;2919;48.630;9.000;2022-08-18T01:24:51;7.30;;;4.17;;
5785;SDS011;2919;48.630;9.000;2022-08-18T01:27:39;9.37;;;3.60;;
5785;SDS011;2919;48.630;9.000;2022-08-18T01:30:07;5.70;;;3.30;;
5785;SDS011;2919;48.630;9.000;2022-08-18T01:32:35;5.57;;;2.90;;
5785;SDS011;2919;48.630;9.000;2022-08-18T01:35:02;5.43;;;3.17;;
5785;SDS011;2919;48.630;9.000;2022-08-18T01:37:29;6.77;;;2.77;;
5785;SDS011;2919;48.630;9.000;2022-08-18T01:39:54;6.47;;;3.30;;
5785;SDS011;2919;48.630;9.000;2022-08-18T01:42:20;5.70;;;3.43;;
5785;SDS011;2919;48.630;9.000;2022-08-18T01:44:46;9.23;;;3.50;;
5785;SDS011;2919;48.630;9.000;2022-08-18T01:47:15;5.47;;;3.40;;
5785;SDS011;2919;48.630;9.000;2022-08-18T01:49:42;5.30;;;3.23;;
5785;SDS011;2919;48.630;9.000;2022-08-18T01:52:09;6.87;;;3.60;;
5785;SDS011;2919;48.630;9.000;2022-08-18T01:54:38;7.20;;;3.40;;
5785;SDS011;2919;48.630;9.000;2022-08-18T01:57:05;9.27;;;4.70;;
5785;SDS011;2919;48.630;9.000;2022-08-18T01:59:30;9.83;;;4.00;;
5785;SDS011;2919;48.630;9.000;2022-08-18T02:01:56;6.60;;;3.70;;
5785;SDS011;2919;48.630;9.000;2022-08-18T02:04:25;7.03;;;3.10;;
5785;SDS011;2919;48.630;9.000;2022-08-18T02:06:57;6.37;;;3.50;;
5785;SDS011;2919;48.630;9.000;2022-08-18T02:09:23;6.40;;;3.70;;
5785;SDS011;2919;48.630;9.000;2022-08-18T02:11:49;6.17;;;3.00;;
5785;SDS011;2919;48.630;9.000;2022-08-18T02:14:15;6.40;;;2.90;;
5785;SDS011;2919;48.630;9.000;2022-08-18T02:16:40;10.70;;;4.20;;
5785;SDS011;2919;48.630;9.000;2022-08-18T02:19:06;5.63;;;3.63;;
5785;SDS011;2919;48.630;9.000;2022-08-18T02:21:31;5.23;;;3.07;;
5785;SDS011;2919;48.630;9.000;2022-08-18T02:23:57;7.77;;;3.50;;
5785;SDS011;2919;48.630;9.000;2022-08-18T02:26:22;6.30;;;3.03;;
5785;SDS011;2919;48.630;9.000;2022-08-18T02:28:49;8.30;;;3.57;;
5785;SDS011;2919;48.630;9.000;2022-08-18T02:31:16;6.83;;;3.50;;
5785;SDS011;2919;48.630;9.000;2022-08-18T02:33:45;9.00;;;3.47;;
5785;SDS011;2919;48.630;9.000;2022-08-18T02:36:11;10.60;;;4.33;;
5785;SDS011;2919;48.630;9.000;2022-08-18T02:38:38;5.43;;;3.70;;
5785;SDS011;2919;48.630;9.000;2022-08-18T02:41:05;5.43;;;3.37;;
5785;SDS011;2919;48.630;9.000;2022-08-18T02:43:32;7.50;;;3.73;;
5785;SDS011;2919;48.630;9.000;2022-08-18T02:45:57;4.77;;;2.67;;
5785;SDS011;2919;48.630;9.000;2022-08-18T02:48:23;6.10;;;3.17;;
5785;SDS011;2919;48.630;9.000;2022-08-18T02:50:58;9.80;;;3.57;;
5785;SDS011;2919;48.630;9.000;2022-08-18T02:53:30;8.23;;;3.47;;
5785;SDS011;2919;48.630;9.000;2022-08-18T02:56:04;6.13;;;3.30;;
5785;SDS011;2919;48.630;9.000;2022-08-18T02:59:15;9.23;;;4.27;;
5785;SDS011;2919;48.630;9.000;2022-08-18T03:01:41;3.30;;;2.50;;
5785;SDS011;2919;48.630;9.000;2022-08-18T03:04:10;5.80;;;2.93;;
5785;SDS011;2919;48.630;9.000;2022-08-18T03:06:39;5.13;;;3.03;;
5785;SDS011;2919;48.630;9.000;2022-08-18T03:09:09;7.40;;;3.77;;
5785;SDS011;2919;48.630;9.000;2022-08-18T03:11:36;5.10;;;3.60;;
5785;SDS011;2919;48.630;9.000;2022-08-18T03:14:02;5.17;;;3.10;;
5785;SDS011;2919;48.630;9.000;2022-08-18T03:16:29;7.10;;;3.73;;
5785;SDS011;2919;48.630;9.000;2022-08-18T03:18:57;5.93;;;3.10;;
5785;SDS011;2919;48.630;9.000;2022-08-18T03:21:26;7.97;;;4.03;;
5785;SDS011;2919;48.630;9.000;2022-08-18T03:23:53;6.40;;;3.47;;
5785;SDS011;2919;48.630;9.000;2022-08-18T03:26:20;7.43;;;3.50;;
5785;SDS011;2919;48.630;9.000;2022-08-18T03:28:48;7.10;;;3.67;;
5785;SDS011;2919;48.630;9.000;2022-08-18T03:31:17;5.77;;;3.80;;
5785;SDS011;2919;48.630;9.000;2022-08-18T03:33:45;8.17;;;3.40;;
5785;SDS011;2919;48.630;9.000;2022-08-18T03:36:15;5.77;;;3.20;;
5785;SDS011;2919;48.630;9.000;2022-08-18T03:38:46;6.10;;;3.53;;
5785;SDS011;2919;48.630;9.000;2022-08-18T03:41:14;6.13;;;3.30;;
5785;SDS011;2919;48.630;9.000;2022-08-18T03:43:42;5.57;;;3.97;;
5785;SDS011;2919;48.630;9.000;2022-08-18T03:46:09;6.47;;;3.33;;
5785;SDS011;2919;48.630;9.000;2022-08-18T03:48:39;10.30;;;4.40;;
5785;SDS011;2919;48.630;9.000;2022-08-18T03:51:06;10.37;;;5.23;;
5785;SDS011;2919;48.630;9.000;2022-08-18T03:53:34;10.17;;;4.33;;
5785;SDS011;2919;48.630;9.000;2022-08-18T03:56:01;9.30;;;4.23;;
5785;SDS011;2919;48.630;9.000;2022-08-18T03:58:31;7.73;;;4.00;;
5785;SDS011;2919;48.630;9.000;2022-08-18T04:00:57;5.57;;;3.70;;
5785;SDS011;2919;48.630;9.000;2022-08-18T04:03:22;6.17;;;3.50;;
5785;SDS011;2919;48.630;9.000;2022-08-18T04:05:48;7.03;;;3.73;;
5785;SDS011;2919;48.630;9.000;2022-08-18T04:08:13;8.00;;;3.80;;
5785;SDS011;2919;48.630;9.000;2022-08-18T04:10:39;6.23;;;4.07;;
5785;SDS011;2919;48.630;9.000;2022-08-18T04:13:08;7.47;;;4.20;;
5785;SDS011;2919;48.630;9.000;2022-08-18T04:15:34;10.90;;;4.30;;
5785;SDS011;2919;48.630;9.000;2022-08-18T04:18:01;8.67;;;3.83;;
5785;SDS011;2919;48.630;9.000;2022-08-18T04:20:32;5.90;;;3.83;;
5785;SDS011;2919;48.630;9.000;2022-08-18T04:22:59;5.80;;;4.07;;
5785;SDS011;2919;48.630;9.000;2022-08-18T04:25:25;7.10;;;4.27;;
5785;SDS011;2919;48.630;9.000;2022-08-18T04:27:51;7.27;;;3.50;;
5785;SDS011;2919;48.630;9.000;2022-08-18T04:30:21;6.63;;;4.20;;
5785;SDS011;2919;48.630;9.000;2022-08-18T04:32:48;7.00;;;3.73;;
5785;SDS011;2919;48.630;9.000;2022-08-18T04:35:15;7.23;;;3.77;;
5785;SDS011;2919;48.630;9.000;2022-08-18T04:37:40;9.60;;;3.83;;
5785;SDS011;2919;48.630;9.000;2022-08-18T04:40:08;8.30;;;4.77;;
5785;SDS011;2919;48.630;9.000;2022-08-18T04:42:34;6.97;;;3.67;;
5785;SDS011;2919;48.630;9.000;2022-08-18T04:45:00;9.40;;;4.63;;
5785;SDS011;2919;48.630;9.000;2022-08-18T04:47:26;6.90;;;3.80;;
5785;SDS011;2919;48.630;9.000;2022-08-18T04:49:51;5.83;;;3.27;;
5785;SDS011;2919;48.630;9.000;2022-08-18T04:52:17;8.07;;;4.87;;
5785;SDS011;2919;48.630;9.000;2022-08-18T04:55:01;6.80;;;4.03;;
5785;SDS011;2919;48.630;9.000;2022-08-18T04:57:28;11.43;;;4.27;;
5785;SDS011;2919;48.630;9.000;2022-08-18T04:59:56;6.73;;;3.50;;
5785;SDS011;2919;48.630;9.000;2022-08-18T05:02:22;6.07;;;4.20;;
5785;SDS011;2919;48.630;9.000;2022-08-18T05:04:48;6.60;;;3.63;;
5785;SDS011;2919;48.630;9.000;2022-08-18T05:07:15;8.43;;;4.10;;
5785;SDS011;2919;48.630;9.000;2022-08-18T05:09:42;12.60;;;4.93;;
5785;SDS011;2919;48.630;9.000;2022-08-18T05:12:09;10.90;;;5.17;;
5785;SDS011;2919;48.630;9.000;2022-08-18T05:14:41;8.70;;;4.47;;
5785;SDS011;2919;48.630;9.000;2022-08-18T05:17:08;9.33;;;4.27;;
5785;SDS011;2919;48.630;9.000;2022-08-18T05:19:35;7.30;;;4.37;;
5785;SDS011;2919;48.630;9.000;2022-08-18T05:22:01;9.27;;;5.17;;
5785;SDS011;2919;48.630;9.000;2022-08-18T05:24:28;6.10;;;3.63;;
5785;SDS011;2919;48.630;9.000;2022-08-18T05:26:57;8.27;;;3.30;;
5785;SDS011;2919;48.630;9.000;2022-08-18T05:29:22;10.43;;;4.80;;
5785;SDS011;2919;48.630;9.000;2022-08-18T05:31:49;11.73;;;4.07;;
5785;SDS011;2919;48.630;9.000;2022-08-18T05:34:17;7.73;;;5.07;;
5785;SDS011;2919;48.630;9.000;2022-08-18T05:41:48;6.30;;;3.50;;
5785;SDS011;2919;48.630;9.000;2022-08-18T05:44:17;7.50;;;4.10;;
5785;SDS011;2919;48.630;9.000;2022-08-18T05:46:51;7.27;;;4.13;;
5785;SDS011;2919;48.630;9.000;2022-08-18T05:49:25;6.90;;;3.97;;
5785;SDS011;2919;48.630;9.000;2022-08-18T05:51:54;8.33;;;4.33;;
5785;SDS011;2919;48.630;9.000;2022-08-18T05:54:24;6.23;;;4.00;;
5785;SDS011;2919;48.630;9.000;2022-08-18T05:57:14;8.57;;;3.87;;
5785;SDS011;2919;48.630;9.000;2022-08-18T05:59:42;7.23;;;4.63;;
5785;SDS011;2919;48.630;9.000;2022-08-18T06:04:58;6.00;;;4.13;;
5785;SDS011;2919;48.630;9.000;2022-08-18T06:07:33;9.57;;;3.80;;
5785;SDS011;2919;48.630;9.000;2022-08-18T06:10:05;11.33;;;4.30;;
5785;SDS011;2919;48.630;9.000;2022-08-18T06:12:35;8.43;;;4.67;;
5785;SDS011;2919;48.630;9.000;2022-08-18T06:15:35;14.50;;;6.37;;
5785;SDS011;2919;48.630;9.000;2022-08-18T06:21:01;10.40;;;5.27;;
5785;SDS011;2919;48.630;9.000;2022-08-18T06:27:23;8.97;;;4.63;;
5785;SDS011;2919;48.630;9.000;2022-08-18T06:37:32;9.23;;;4.50;;
5785;SDS011;2919;48.630;9.000;2022-08-18T06:40:20;7.20;;;4.07;;
5785;SDS011;2919;48.630;9.000;2022-08-18T06:42:45;10.40;;;4.50;;
5785;SDS011;2919;48.630;9.000;2022-08-18T06:45:12;8.87;;;4.67;;
5785;SDS011;2919;48.630;9.000;2022-08-18T06:47:51;10.17;;;4.30;;
5785;SDS011;2919;48.630;9.000;2022-08-18T06:52:58;7.53;;;4.50;;
5785;SDS011;2919;48.630;9.000;2022-08-18T06:58:04;10.33;;;5.00;;
5785;SDS011;2919;48.630;9.000;2022-08-18T07:03:20;7.00;;;4.07;;
5785;SDS011;2919;48.630;9.000;2022-08-18T07:08:33;9.17;;;4.20;;
5785;SDS011;2919;48.630;9.000;2022-08-18T07:13:50;9.30;;;4.07;;
5785;SDS011;2919;48.630;9.000;2022-08-18T07:18:52;14.57;;;5.30;;
5785;SDS011;2919;48.630;9.000;2022-08-18T07:21:23;6.30;;;3.60;;
5785;SDS011;2919;48.630;9.000;2022-08-18T07:24:01;7.30;;;3.83;;
5785;SDS011;2919;48.630;9.000;2022-08-18T07:26:56;7.60;;;3.80;;
5785;SDS011;2919;48.630;9.000;2022-08-18T07:29:30;8.93;;;4.30;;
5785;SDS011;2919;48.630;9.000;2022-08-18T07:32:00;6.53;;;4.20;;
5785;SDS011;2919;48.630;9.000;2022-08-18T07:34:33;10.27;;;4.00;;
5785;SDS011;2919;48.630;9.000;2022-08-18T07:39:53;7.30;;;3.60;;
5785;SDS011;2919;48.630;9.000;2022-08-18T07:42:33;7.00;;;4.00;;
5785;SDS011;2919;48.630;9.000;2022-08-18T07:45:11;10.53;;;4.90;;
5785;SDS011;2919;48.630;9.000;2022-08-18T07:50:54;9.60;;;4.10;;
5785;SDS011;2919;48.630;9.000;2022-08-18T07:56:44;10.60;;;5.03;;
5785;SDS011;2919;48.630;9.000;2022-08-18T07:59:00;7.33;;;4.23;;
5785;SDS011;2919;48.630;9.000;2022-08-18T08:01:39;9.13;;;3.97;;
5785;SDS011;2919;48.630;9.000;2022-08-18T08:06:53;6.67;;;4.00;;
5785;SDS011;2919;48.630;9.000;2022-08-18T08:14:47;11.20;;;4.30;;
5785;SDS011;2919;48.630;9.000;2022-08-18T08:25:25;6.20;;;3.70;;
5785;SDS011;2919;48.630;9.000;2022-08-18T08:31:00;7.67;;;3.77;;
5785;SDS011;2919;48.630;9.000;2022-08-18T08:33:32;7.33;;;3.97;;
5785;SDS011;2919;48.630;9.000;2022-08-18T08:36:06;5.73;;;3.00;;
5785;SDS011;2919;48.630;9.000;2022-08-18T08:41:23;10.80;;;3.40;;
5785;SDS011;2919;48.630;9.000;2022-08-18T08:46:54;19.20;;;4.10;;
5785;SDS011;2919;48.630;9.000;2022-08-18T08:49:31;4.93;;;3.37;;
5785;SDS011;2919;48.630;9.000;2022-08-18T08:52:02;8.30;;;4.30;;
5785;SDS011;2919;48.630;9.000;2022-08-18T08:54:39;6.00;;;3.53;;
5785;SDS011;2919;48.630;9.000;2022-08-18T08:57:12;9.20;;;3.80;;
5785;SDS011;2919;48.630;9.000;2022-08-18T08:59:38;6.17;;;3.70;;
5785;SDS011;2919;48.630;9.000;2022-08-18T09:04:49;7.73;;;3.43;;
5785;SDS011;2919;48.630;9.000;2022-08-18T09:18:06;8.00;;;4.53;;
5785;SDS011;2919;48.630;9.000;2022-08-18T09:23:12;9.73;;;4.60;;
5785;SDS011;2919;48.630;9.000;2022-08-18T09:25:49;8.97;;;4.97;;
5785;SDS011;2919;48.630;9.000;2022-08-18T09:28:19;13.70;;;4.90;;
5785;SDS011;2919;48.630;9.000;2022-08-18T09:39:28;7.03;;;4.27;;
5785;SDS011;2919;48.630;9.000;2022-08-18T09:42:33;8.87;;;4.60;;
5785;SDS011;2919;48.630;9.000;2022-08-18T09:45:38;9.37;;;4.80;;
5785;SDS011;2919;48.630;9.000;2022-08-18T09:50:32;8.67;;;4.97;;
5785;SDS011;2919;48.630;9.000;2022-08-18T09:53:15;9.10;;;4.70;;
5785;SDS011;2919;48.630;9.000;2022-08-18T09:56:00;8.67;;;4.83;;
5785;SDS011;2919;48.630;9.000;2022-08-18T10:03:44;14.53;;;5.50;;
5785;SDS011;2919;48.630;9.000;2022-08-18T10:06:37;6.30;;;4.00;;
5785;SDS011;2919;48.630;9.000;2022-08-18T10:14:33;7.07;;;4.23;;
5785;SDS011;2919;48.630;9.000;2022-08-18T10:22:55;8.50;;;4.17;;
5785;SDS011;2919;48.630;9.000;2022-08-18T10:25:32;6.20;;;3.63;;
5785;SDS011;2919;48.630;9.000;2022-08-18T10:28:05;4.90;;;3.33;;
5785;SDS011;2919;48.630;9.000;2022-08-18T10:33:01;8.13;;;4.30;;
5785;SDS011;2919;48.630;9.000;2022-08-18T10:38:01;8.07;;;4.33;;
5785;SDS011;2919;48.630;9.000;2022-08-18T10:40:35;5.77;;;3.87;;
5785;SDS011;2919;48.630;9.000;2022-08-18T10:43:09;9.53;;;5.20;;
5785;SDS011;2919;48.630;9.000;2022-08-18T10:45:44;9.27;;;5.33;;
5785;SDS011;2919;48.630;9.000;2022-08-18T10:48:17;7.50;;;4.87;;
5785;SDS011;2919;48.630;9.000;2022-08-18T11:06:48;6.57;;;4.70;;
5785;SDS011;2919;48.630;9.000;2022-08-18T11:09:23;9.77;;;4.90;;
5785;SDS011;2919;48.630;9.000;2022-08-18T11:11:52;8.30;;;4.47;;
5785;SDS011;2919;48.630;9.000;2022-08-18T11:19:37;17.90;;;4.70;;
5785;SDS011;2919;48.630;9.000;2022-08-18T11:22:04;8.73;;;4.60;;
5785;SDS011;2919;48.630;9.000;2022-08-18T11:24:30;6.63;;;3.80;;
5785;SDS011;2919;48.630;9.000;2022-08-18T11:27:00;10.47;;;5.00;;
5785;SDS011;2919;48.630;9.000;2022-08-18T11:32:07;5.70;;;3.60;;
5785;SDS011;2919;48.630;9.000;2022-08-18T11:34:40;12.73;;;4.47;;
5785;SDS011;2919;48.630;9.000;2022-08-18T11:37:18;10.60;;;4.40;;
5785;SDS011;2919;48.630;9.000;2022-08-18T11:39:48;8.70;;;4.53;;
5785;SDS011;2919;48.630;9.000;2022-08-18T11:42:16;10.33;;;6.13;;
5785;SDS011;2919;48.630;9.000;2022-08-18T11:44:43;8.00;;;4.60;;
5785;SDS011;2919;48.630;9.000;2022-08-18T11:47:17;11.53;;;5.03;;
5785;SDS011;2919;48.630;9.000;2022-08-18T11:50:07;8.27;;;4.43;;
5785;SDS011;2919;48.630;9.000;2022-08-18T11:52:49;9.17;;;4.37;;
5785;SDS011;2919;48.630;9.000;2022-08-18T11:55:17;6.67;;;3.90;;
5785;SDS011;2919;48.630;9.000;2022-08-18T11:57:50;6.70;;;3.63;;
5785;SDS011;2919;48.630;9.000;2022-08-18T12:00:38;7.43;;;4.67;;
5785;SDS011;2919;48.630;9.000;2022-08-18T12:03:10;8.20;;;4.40;;
5785;SDS011;2919;48.630;9.000;2022-08-18T12:05:55;7.80;;;4.43;;
5785;SDS011;2919;48.630;9.000;2022-08-18T12:11:19;6.93;;;3.70;;
5785;SDS011;2919;48.630;9.000;2022-08-18T12:13:55;14.60;;;4.23;;
5785;SDS011;2919;48.630;9.000;2022-08-18T12:16:41;7.60;;;3.83;;
5785;SDS011;2919;48.630;9.000;2022-08-18T12:19:11;10.10;;;4.37;;
5785;SDS011;2919;48.630;9.000;2022-08-18T12:21:39;10.17;;;5.20;;
5785;SDS011;2919;48.630;9.000;2022-08-18T12:24:09;9.63;;;4.87;;
5785;SDS011;2919;48.630;9.000;2022-08-18T12:26:57;8.20;;;4.50;;
5785;SDS011;2919;48.630;9.000;2022-08-18T12:29:23;7.63;;;4.70;;
5785;SDS011;2919;48.630;9.000;2022-08-18T12:31:50;7.73;;;3.40;;
5785;SDS011;2919;48.630;9.000;2022-08-18T12:34:20;6.17;;;4.50;;
5785;SDS011;2919;48.630;9.000;2022-08-18T12:36:49;6.40;;;4.17;;
5785;SDS011;2919;48.630;9.000;2022-08-18T12:39:16;9.93;;;4.67;;
5785;SDS011;2919;48.630;9.000;2022-08-18T12:41:42;7.20;;;5.03;;
5785;SDS011;2919;48.630;9.000;2022-08-18T12:44:07;7.47;;;4.90;;
5785;SDS011;2919;48.630;9.000;2022-08-18T12:46:34;6.70;;;4.83;;
5785;SDS011;2919;48.630;9.000;2022-08-18T12:49:00;7.70;;;3.90;;
5785;SDS011;2919;48.630;9.000;2022-08-18T12:51:26;9.60;;;5.00;;
5785;SDS011;2919;48.630;9.000;2022-08-18T12:53:52;9.57;;;4.83;;
5785;SDS011;2919;48.630;9.000;2022-08-18T12:56:20;11.10;;;5.00;;
5785;SDS011;2919;48.630;9.000;2022-08-18T12:58:48;6.43;;;4.20;;
5785;SDS011;2919;48.630;9.000;2022-08-18T13:01:15;7.37;;;3.90;;
5785;SDS011;2919;48.630;9.000;2022-08-18T13:03:42;9.77;;;4.47;;
5785;SDS011;2919;48.630;9.000;2022-08-18T13:06:09;10.77;;;5.40;;
5785;SDS011;2919;48.630;9.000;2022-08-18T13:08:36;6.63;;;4.07;;
5785;SDS011;2919;48.630;9.000;2022-08-18T13:11:02;11.10;;;4.53;;
5785;SDS011;2919;48.630;9.000;2022-08-18T13:13:34;9.20;;;4.53;;
5785;SDS011;2919;48.630;9.000;2022-08-18T13:16:01;11.90;;;4.60;;
5785;SDS011;2919;48.630;9.000;2022-08-18T13:18:27;7.77;;;4.43;;
5785;SDS011;2919;48.630;9.000;2022-08-18T13:20:53;7.30;;;3.80;;
5785;SDS011;2919;48.630;9.000;2022-08-18T13:23:19;5.70;;;3.60;;
5785;SDS011;2919;48.630;9.000;2022-08-18T13:25:44;8.30;;;3.67;;
5785;SDS011;2919;48.630;9.000;2022-08-18T13:28:10;7.53;;;4.40;;
5785;SDS011;2919;48.630;9.000;2022-08-18T13:30:35;9.20;;;4.43;;
5785;SDS011;2919;48.630;9.000;2022-08-18T13:33:01;6.17;;;3.83;;
5785;SDS011;2919;48.630;9.000;2022-08-18T13:35:28;12.50;;;4.63;;
5785;SDS011;2919;48.630;9.000;2022-08-18T13:37:54;7.70;;;4.17;;
5785;SDS011;2919;48.630;9.000;2022-08-18T13:40:20;6.90;;;3.80;;
5785;SDS011;2919;48.630;9.000;2022-08-18T13:42:47;11.83;;;3.77;;
5785;SDS011;2919;48.630;9.000;2022-08-18T13:45:18;10.63;;;3.57;;
5785;SDS011;2919;48.630;9.000;2022-08-18T13:47:45;5.73;;;3.80;;
5785;SDS011;2919;48.630;9.000;2022-08-18T13:50:11;8.10;;;3.90;;
5785;SDS011;2919;48.630;9.000;2022-08-18T13:52:38;9.83;;;4.10;;
5785;SDS011;2919;48.630;9.000;2022-08-18T13:55:09;8.70;;;4.07;;
5785;SDS011;2919;48.630;9.000;2022-08-18T13:57:37;7.70;;;3.83;;
5785;SDS011;2919;48.630;9.000;2022-08-18T14:00:04;6.00;;;3.83;;
5785;SDS011;2919;48.630;9.000;2022-08-18T14:02:32;11.73;;;3.90;;
5785;SDS011;2919;48.630;9.000;2022-08-18T14:04:58;8.23;;;4.27;;
5785;SDS011;2919;48.630;9.000;2022-08-18T14:07:24;11.70;;;5.10;;
5785;SDS011;2919;48.630;9.000;2022-08-18T14:09:49;8.97;;;4.43;;
5785;SDS011;2919;48.630;9.000;2022-08-18T14:12:16;7.53;;;4.30;;
5785;SDS011;2919;48.630;9.000;2022-08-18T14:14:46;6.90;;;3.63;;
5785;SDS011;2919;48.630;9.000;2022-08-18T14:17:13;6.73;;;3.83;;
5785;SDS011;2919;48.630;9.000;2022-08-18T14:19:39;5.40;;;3.33;;
5785;SDS011;2919;48.630;9.000;2022-08-18T14:22:23;5.60;;;3.40;;
5785;SDS011;2919;48.630;9.000;2022-08-18T14:25:07;7.43;;;3.73;;
5785;SDS011;2919;48.630;9.000;2022-08-18T14:27:52;7.43;;;4.23;;
5785;SDS011;2919;48.630;9.000;2022-08-18T14:30:17;10.93;;;4.50;;
5785;SDS011;2919;48.630;9.000;2022-08-18T14:32:43;9.03;;;4.70;;
5785;SDS011;2919;48.630;9.000;2022-08-18T14:35:11;6.30;;;3.50;;
5785;SDS011;2919;48.630;9.000;2022-08-18T14:37:39;6.50;;;3.80;;
5785;SDS011;2919;48.630;9.000;2022-08-18T14:40:05;7.63;;;4.57;;
5785;SDS011;2919;48.630;9.000;2022-08-18T14:42:32;8.90;;;3.77;;
5785;SDS011;2919;48.630;9.000;2022-08-18T14:44:58;4.83;;;3.40;;
5785;SDS011;2919;48.630;9.000;2022-08-18T14:47:24;8.27;;;4.60;;
5785;SDS011;2919;48.630;9.000;2022-08-18T14:49:53;7.20;;;3.50;;
5785;SDS011;2919;48.630;9.000;2022-08-18T14:52:21;6.87;;;4.07;;
5785;SDS011;2919;48.630;9.000;2022-08-18T14:54:48;5.20;;;3.37;;
5785;SDS011;2919;48.630;9.000;2022-08-18T14:57:14;6.90;;;4.10;;
5785;SDS011;2919;48.630;9.000;2022-08-18T14:59:40;5.53;;;3.80;;
5785;SDS011;2919;48.630;9.000;2022-08-18T15:02:07;11.37;;;4.67;;
5785;SDS011;2919;48.630;9.000;2022-08-18T15:04:34;6.43;;;4.43;;
5785;SDS011;2919;48.630;9.000;2022-08-18T15:07:00;8.57;;;3.83;;
5785;SDS011;2919;48.630;9.000;2022-08-18T15:09:27;8.90;;;3.87;;
5785;SDS011;2919;48.630;9.000;2022-08-18T15:11:56;7.70;;;4.57;;
5785;SDS011;2919;48.630;9.000;2022-08-18T15:14:24;7.17;;;4.50;;
5785;SDS011;2919;48.630;9.000;2022-08-18T15:16:51;6.27;;;3.80;;
5785;SDS011;2919;48.630;9.000;2022-08-18T15:19:17;9.13;;;4.10;;
5785;SDS011;2919;48.630;9.000;2022-08-18T15:21:42;7.80;;;3.53;;
5785;SDS011;2919;48.630;9.000;2022-08-18T15:24:26;8.27;;;4.60;;
5785;SDS011;2919;48.630;9.000;2022-08-18T15:27:11;8.80;;;3.67;;
5785;SDS011;2919;48.630;9.000;2022-08-18T15:29:37;6.17;;;3.90;;
5785;SDS011;2919;48.630;9.000;2022-08-18T15:32:02;9.33;;;4.37;;
5785;SDS011;2919;48.630;9.000;2022-08-18T15:34:28;5.70;;;3.37;;
5785;SDS011;2919;48.630;9.000;2022-08-18T15:36:54;5.57;;;3.83;;
5785;SDS011;2919;48.630;9.000;2022-08-18T15:39:21;8.97;;;4.03;;
5785;SDS011;2919;48.630;9.000;2022-08-18T15:41:47;7.00;;;4.03;;
5785;SDS011;2919;48.630;9.000;2022-08-18T15:44:15;7.10;;;3.40;;
5785;SDS011;2919;48.630;9.000;2022-08-18T15:46:42;6.97;;;4.00;;
5785;SDS011;2919;48.630;9.000;2022-08-18T15:49:08;6.00;;;3.77;;
5785;SDS011;2919;48.630;9.000;2022-08-18T15:51:34;12.33;;;4.00;;
5785;SDS011;2919;48.630;9.000;2022-08-18T15:54:02;7.47;;;3.57;;
5785;SDS011;2919;48.630;9.000;2022-08-18T15:56:28;8.27;;;4.27;;
5785;SDS011;2919;48.630;9.000;2022-08-18T15:58:55;12.50;;;3.93;;
5785;SDS011;2919;48.630;9.000;2022-08-18T16:01:23;5.73;;;3.60;;
5785;SDS011;2919;48.630;9.000;2022-08-18T16:03:51;8.40;;;3.77;;
5785;SDS011;2919;48.630;9.000;2022-08-18T16:06:20;18.33;;;4.80;;
5785;SDS011;2919;48.630;9.000;2022-08-18T16:08:48;7.20;;;3.80;;
5785;SDS011;2919;48.630;9.000;2022-08-18T16:11:15;6.40;;;3.50;;
5785;SDS011;2919;48.630;9.000;2022-08-18T16:13:43;6.57;;;3.50;;
5785;SDS011;2919;48.630;9.000;2022-08-18T16:16:10;8.40;;;3.80;;
5785;SDS011;2919;48.630;9.000;2022-08-18T16:18:38;4.13;;;2.60;;
5785;SDS011;2919;48.630;9.000;2022-08-18T16:21:06;7.77;;;4.00;;
5785;SDS011;2919;48.630;9.000;2022-08-18T16:23:39;10.57;;;4.30;;
5785;SDS011;2919;48.630;9.000;2022-08-18T16:26:06;6.67;;;3.63;;
5785;SDS011;2919;48.630;9.000;2022-08-18T16:28:33;5.47;;;3.70;;
5785;SDS011;2919;48.630;9.000;2022-08-18T16:30:59;19.33;;;4.80;;
5785;SDS011;2919;48.630;9.000;2022-08-18T16:33:26;7.10;;;3.97;;
5785;SDS011;2919;48.630;9.000;2022-08-18T16:35:52;6.50;;;3.43;;
5785;SDS011;2919;48.630;9.000;2022-08-18T16:38:18;7.80;;;4.00;;
5785;SDS011;2919;48.630;9.000;2022-08-18T16:40:44;6.13;;;3.70;;
5785;SDS011;2919;48.630;9.000;2022-08-18T16:43:10;7.77;;;4.00;;
5785;SDS011;2919;48.630;9.000;2022-08-18T16:45:37;6.37;;;3.33;;
5785;SDS011;2919;48.630;9.000;2022-08-18T16:48:07;9.17;;;3.50;;
5785;SDS011;2919;48.630;9.000;2022-08-18T16:50:34;8.97;;;4.00;;
5785;SDS011;2919;48.630;9.000;2022-08-18T16:53:01;7.37;;;3.70;;
5785;SDS011;2919;48.630;9.000;2022-08-18T16:55:29;6.10;;;3.50;;
5785;SDS011;2919;48.630;9.000;2022-08-18T16:57:55;12.00;;;3.73;;
5785;SDS011;2919;48.630;9.000;2022-08-18T17:00:39;5.03;;;3.37;;
5785;SDS011;2919;48.630;9.000;2022-08-18T17:03:23;10.80;;;4.43;;
5785;SDS011;2919;48.630;9.000;2022-08-18T17:06:09;10.20;;;4.37;;
5785;SDS011;2919;48.630;9.000;2022-08-18T17:08:38;8.90;;;4.17;;
5785;SDS011;2919;48.630;9.000;2022-08-18T17:11:06;7.90;;;3.90;;
5785;SDS011;2919;48.630;9.000;2022-08-18T17:13:33;6.83;;;3.83;;
5785;SDS011;2919;48.630;9.000;2022-08-18T17:15:59;6.13;;;3.30;;
5785;SDS011;2919;48.630;9.000;2022-08-18T17:18:26;7.97;;;3.40;;
5785;SDS011;2919;48.630;9.000;2022-08-18T17:20:53;7.17;;;3.20;;
5785;SDS011;2919;48.630;9.000;2022-08-18T17:23:19;7.87;;;3.80;;
5785;SDS011;2919;48.630;9.000;2022-08-18T17:25:44;8.30;;;4.23;;
5785;SDS011;2919;48.630;9.000;2022-08-18T17:28:13;8.57;;;3.90;;
5785;SDS011;2919;48.630;9.000;2022-08-18T17:30:45;7.73;;;4.70;;
5785;SDS011;2919;48.630;9.000;2022-08-18T17:33:21;8.50;;;4.67;;
5785;SDS011;2919;48.630;9.000;2022-08-18T17:35:51;10.73;;;5.57;;
5785;SDS011;2919;48.630;9.000;2022-08-18T17:40:52;10.40;;;5.27;;
5785;SDS011;2919;48.630;9.000;2022-08-18T17:43:21;11.47;;;6.13;;
5785;SDS011;2919;48.630;9.000;2022-08-18T17:45:52;7.73;;;5.03;;
5785;SDS011;2919;48.630;9.000;2022-08-18T17:48:26;11.43;;;5.93;;
5785;SDS011;2919;48.630;9.000;2022-08-18T17:51:03;11.90;;;5.70;;
5785;SDS011;2919;48.630;9.000;2022-08-18T17:53:56;12.03;;;6.13;;
5785;SDS011;2919;48.630;9.000;2022-08-18T17:56:25;12.30;;;6.57;;
5785;SDS011;2919;48.630;9.000;2022-08-18T18:01:37;14.17;;;7.80;;
5785;SDS011;2919;48.630;9.000;2022-08-18T18:04:03;12.33;;;6.20;;
5785;SDS011;2919;48.630;9.000;2022-08-18T18:09:05;14.57;;;7.27;;
5785;SDS011;2919;48.630;9.000;2022-08-18T18:11:38;15.50;;;8.20;;
5785;SDS011;2919;48.630;9.000;2022-08-18T18:19:31;14.13;;;8.53;;